Time;durP1;ratioP1;P1;durP2;ratioP2;P2;SDS_P1;SDS_P2;PMS_P1;PMS_P2;Temp;Humidity;BMP_temperature;BMP_pressure;BME280_temperature;BME280_humidity;BME280_pressure;Samples;Min_cycle;Max_cycle;Signal;HPM_P1;HPM_P2
2021/03/04 00:01:30;;;;;;;7.93;4.15;;;4.60;95.50;;;7.38;84.35;102519.69;4991047;28;96871;-67
2021/03/04 00:03:58;;;;;;;7.88;3.72;;;4.60;95.50;;;7.36;84.64;102522.59;4987638;28;96925;-66
2021/03/04 00:06:26;;;;;;;5.20;3.38;;;4.60;95.50;;;7.38;83.98;102525.00;4988552;28;96936;-67
2021/03/04 00:08:54;;;;;;;14.90;3.85;;;4.60;95.50;;;7.29;84.44;102521.09;4988178;28;97349;-67
2021/03/04 00:11:23;;;;;;;6.03;4.18;;;4.60;95.50;;;7.24;84.96;102515.69;4953440;28;97745;-66
2021/03/04 00:13:51;;;;;;;2.92;2.63;;;4.60;95.40;;;7.22;84.94;102521.22;4990876;28;96746;-67
2021/03/04 00:16:19;;;;;;;33.25;4.90;;;4.60;95.40;;;7.21;85.17;102508.97;4958406;28;96881;-66
2021/03/04 00:18:48;;;;;;;18.20;4.63;;;4.60;95.40;;;7.19;84.99;102515.56;4989694;28;96653;-66
2021/03/04 00:21:15;;;;;;;6.13;3.53;;;4.60;95.50;;;7.20;84.55;102525.16;4973136;28;97010;-66
2021/03/04 00:23:55;;;;;;;3.88;3.08;;;4.60;95.50;;;7.19;85.96;102521.72;4988641;28;98844;-66
2021/03/04 00:26:23;;;;;;;5.07;3.70;;;4.60;95.50;;;7.22;85.39;102525.78;4984381;28;97453;-66
2021/03/04 00:28:51;;;;;;;5.28;3.60;;;4.60;95.50;;;7.23;84.83;102516.72;5007170;28;96956;-66
2021/03/04 00:31:19;;;;;;;3.55;3.25;;;4.60;95.50;;;7.23;84.67;102512.19;4953377;28;96982;-66
2021/03/04 00:33:48;;;;;;;1.80;1.70;;;4.60;95.50;;;7.25;85.19;102509.31;4989056;28;97748;-66
2021/03/04 00:36:15;;;;;;;6.20;2.60;;;4.60;95.50;;;7.22;84.86;102510.56;4988846;28;97908;-66
2021/03/04 00:38:43;;;;;;;11.23;3.80;;;4.60;95.50;;;7.23;84.89;102508.72;4990415;28;96836;-66
2021/03/04 00:41:11;;;;;;;3.20;2.92;;;4.60;95.50;;;7.21;85.13;102505.50;4991229;28;96763;-66
2021/03/04 00:43:40;;;;;;;6.07;2.88;;;4.60;95.50;;;7.19;84.56;102499.56;4990188;28;97732;-66
2021/03/04 00:46:08;;;;;;;10.90;3.83;;;4.60;95.50;;;7.17;84.65;102505.16;4988660;28;97881;-67
2021/03/04 00:48:36;;;;;;;3.97;1.73;;;4.60;95.50;;;7.18;84.58;102511.28;4984532;28;97055;-66
2021/03/04 00:51:05;;;;;;;31.20;5.50;;;4.60;95.40;;;7.15;85.14;102499.25;4984245;28;97282;-67
2021/03/04 00:53:33;;;;;;;3.13;2.83;;;4.60;95.40;;;7.16;85.18;102494.72;4989223;28;98329;-66
2021/03/04 00:56:03;;;;;;;0.80;0.80;;;4.60;95.40;;;7.15;84.58;102501.09;4988045;28;97635;-67
2021/03/04 00:58:32;;;;;;;4.38;2.35;;;4.50;95.40;;;7.20;85.31;102495.84;4990179;28;96901;-67
2021/03/04 01:01:00;;;;;;;6.85;3.53;;;4.50;95.70;;;7.17;84.91;102491.00;4991191;28;97451;-66
2021/03/04 01:03:33;;;;;;;9.52;3.70;;;4.50;95.40;;;7.19;84.47;102480.91;4986775;28;98141;-67
2021/03/04 01:06:03;;;;;;;1.23;1.20;;;4.50;95.40;;;7.15;84.78;102474.44;4988253;28;96695;-67
2021/03/04 01:08:32;;;;;;;9.40;4.22;;;4.50;95.40;;;7.14;84.93;102480.81;4987108;28;96839;-67
2021/03/04 01:11:00;;;;;;;2.40;2.20;;;4.50;95.40;;;7.09;85.05;102476.22;4989750;28;97451;-66
2021/03/04 01:13:31;;;;;;;6.50;3.60;;;4.50;95.40;;;7.13;84.33;102474.69;4989762;28;97885;-66
2021/03/04 01:16:05;;;;;;;7.23;2.03;;;4.50;95.40;;;7.10;84.31;102469.81;4986949;28;98190;-66
2021/03/04 01:18:34;;;;;;;10.68;4.38;;;4.50;95.40;;;7.09;84.60;102465.53;4985932;28;96903;-66
2021/03/04 01:21:07;;;;;;;6.03;3.35;;;4.50;95.40;;;7.09;84.86;102470.88;4985830;28;97175;-66
2021/03/04 01:23:36;;;;;;;2.65;1.88;;;4.50;95.50;;;7.07;84.47;102475.63;4990915;28;98037;-66
2021/03/04 01:26:04;;;;;;;4.40;3.67;;;4.50;95.50;;;7.05;84.72;102467.03;4989630;28;98857;-66
2021/03/04 01:28:32;;;;;;;4.88;4.07;;;4.40;95.40;;;7.06;84.90;102473.19;4965062;28;96855;-67
2021/03/04 01:31:00;;;;;;;3.38;2.63;;;4.40;95.40;;;7.07;84.53;102456.16;4991913;28;97476;-67
2021/03/04 01:33:31;;;;;;;2.95;2.40;;;4.40;95.40;;;7.02;84.76;102458.72;4988764;28;97729;-67
2021/03/04 01:35:59;;;;;;;6.22;4.45;;;4.40;95.40;;;7.04;84.23;102449.44;4999121;28;96974;-66
2021/03/04 01:38:31;;;;;;;4.97;2.23;;;4.40;95.40;;;6.98;84.61;102439.72;4984577;28;97882;-66
2021/03/04 01:40:59;;;;;;;4.65;1.92;;;4.40;95.40;;;6.98;84.36;102438.94;4989534;28;97087;-66
2021/03/04 01:43:31;;;;;;;12.02;5.07;;;4.40;95.40;;;6.98;84.50;102428.28;4989737;28;97972;-66
2021/03/04 01:45:59;;;;;;;5.75;3.15;;;4.40;95.40;;;6.99;85.40;102424.56;4986879;28;97467;-67
2021/03/04 01:48:44;;;;;;;1.92;1.73;;;4.40;95.40;;;6.95;84.68;102431.41;4984221;28;100342;-66
2021/03/04 01:51:12;;;;;;;4.40;1.95;;;4.40;95.50;;;6.96;84.31;102425.81;4987149;28;97409;-66
2021/03/04 01:53:58;;;;;;;6.65;4.95;;;4.40;95.40;;;6.98;85.05;102421.06;4986727;28;96959;-66
2021/03/04 01:56:32;;;;;;;5.78;3.25;;;4.30;95.40;;;7.03;84.23;102433.69;4972503;28;97716;-66
2021/03/04 01:59:04;;;;;;;3.92;2.30;;;4.40;95.40;;;6.95;85.02;102439.41;4971749;28;96727;-67
2021/03/04 02:01:33;;;;;;;14.65;3.20;;;4.40;95.50;;;6.92;85.46;102434.56;4988213;28;96867;-66
2021/03/04 02:04:05;;;;;;;15.68;2.85;;;4.40;95.40;;;6.91;85.02;102430.28;4963257;28;97879;-67
2021/03/04 02:06:43;;;;;;;6.75;3.13;;;4.30;95.40;;;6.91;84.92;102427.59;4971280;28;96806;-66
2021/03/04 02:09:14;;;;;;;6.05;2.58;;;4.30;95.40;;;6.94;85.19;102416.47;4981080;28;99729;-66
2021/03/04 02:11:52;;;;;;;6.03;2.05;;;4.30;95.40;;;6.90;84.24;102402.81;4987961;28;96795;-66
2021/03/04 02:14:31;;;;;;;2.88;2.17;;;4.30;95.40;;;6.94;84.40;102409.28;4989328;28;96836;-66
2021/03/04 02:17:06;;;;;;;5.95;2.28;;;4.30;95.40;;;6.95;85.00;102405.56;4981358;28;97746;-67
2021/03/04 02:19:51;;;;;;;8.55;3.58;;;4.30;95.40;;;6.96;84.09;102382.41;4980421;28;96879;-66
2021/03/04 02:22:52;;;;;;;5.88;2.53;;;4.30;95.40;;;6.91;84.62;102380.44;4984517;28;97999;-66
2021/03/04 02:25:31;;;;;;;0.85;0.85;;;4.30;95.40;;;6.91;85.03;102374.31;4998819;28;98021;-66
2021/03/04 02:28:03;;;;;;;13.10;4.63;;;4.30;95.40;;;6.96;84.29;102366.41;4986722;28;97074;-66
2021/03/04 02:30:36;;;;;;;3.20;2.03;;;4.30;95.50;;;6.93;84.45;102372.22;4989534;28;96898;-66
2021/03/04 02:33:13;;;;;;;6.82;2.78;;;4.30;95.50;;;6.97;85.06;102373.34;4987829;28;97287;-66
2021/03/04 02:35:44;;;;;;;3.75;2.80;;;4.30;95.40;;;6.95;84.75;102375.47;4988490;28;96872;-66
2021/03/04 02:38:17;;;;;;;5.95;1.90;;;4.30;95.40;;;6.92;84.33;102368.75;4990458;28;97680;-66
2021/03/04 02:40:51;;;;;;;5.90;3.47;;;4.30;95.40;;;6.92;84.29;102367.94;4991290;28;96824;-66
2021/03/04 02:43:24;;;;;;;5.13;3.30;;;4.20;95.40;;;6.88;84.14;102372.94;4987657;28;101174;-66
2021/03/04 02:45:54;;;;;;;2.75;2.55;;;4.20;95.40;;;6.93;83.79;102362.34;5005883;28;96926;-66
2021/03/04 02:48:25;;;;;;;11.93;3.95;;;4.30;95.40;;;6.94;84.51;102360.53;4987044;28;97790;-66
2021/03/04 02:50:55;;;;;;;3.83;2.20;;;4.20;95.40;;;6.91;84.70;102353.78;4992845;28;96729;-66
2021/03/04 02:53:24;;;;;;;5.85;3.58;;;4.20;95.40;;;6.86;84.50;102350.22;4990721;28;96903;-67
2021/03/04 02:55:55;;;;;;;8.85;4.55;;;4.20;95.40;;;6.86;84.95;102342.22;4988124;28;98116;-66
2021/03/04 02:58:25;;;;;;;11.73;3.67;;;4.20;95.40;;;6.85;84.92;102348.59;4983677;28;97668;-66
2021/03/04 03:00:54;;;;;;;12.45;3.78;;;4.20;95.40;;;6.84;84.16;102357.63;4990753;28;96811;-66
2021/03/04 03:03:22;;;;;;;5.63;3.67;;;4.20;95.40;;;6.83;84.65;102350.69;4991242;28;96789;-67
2021/03/04 03:05:51;;;;;;;8.40;3.53;;;4.20;95.40;;;6.85;85.19;102354.75;4988652;28;97035;-66
2021/03/04 03:08:21;;;;;;;2.85;2.65;;;4.20;95.40;;;6.80;84.35;102356.50;4971545;28;97950;-66
2021/03/04 03:10:52;;;;;;;1.20;0.95;;;4.20;95.50;;;6.77;84.98;102354.31;4970385;28;96742;-66
2021/03/04 03:13:21;;;;;;;5.75;3.03;;;4.20;95.50;;;6.77;84.47;102341.81;4989119;28;97294;-66
2021/03/04 03:15:52;;;;;;;6.18;3.42;;;4.20;95.70;;;6.75;85.09;102341.22;4989908;28;97947;-66
2021/03/04 03:18:20;;;;;;;8.10;2.13;;;4.10;95.40;;;6.78;85.13;102346.09;4987830;28;97593;-66
2021/03/04 03:20:48;;;;;;;7.38;3.00;;;4.20;95.50;;;6.79;84.94;102352.22;4989800;28;97522;-67
2021/03/04 03:23:16;;;;;;;4.40;1.60;;;4.10;95.50;;;6.82;84.52;102349.91;4991786;28;97050;-67
2021/03/04 03:25:44;;;;;;;1.33;1.23;;;4.10;95.50;;;6.79;84.74;102344.22;5003825;28;96924;-67
2021/03/04 03:28:12;;;;;;;2.42;2.20;;;4.20;95.50;;;6.80;84.56;102340.53;4988327;28;97389;-66
2021/03/04 03:30:40;;;;;;;7.97;2.55;;;4.10;95.50;;;6.86;83.69;102344.88;4991995;28;97017;-66
2021/03/04 03:33:13;;;;;;;3.65;2.13;;;4.10;95.50;;;6.82;83.67;102341.09;4988888;28;97034;-67
2021/03/04 03:35:42;;;;;;;4.68;1.13;;;4.10;95.50;;;6.83;84.13;102340.03;4990361;28;98094;-67
2021/03/04 03:38:13;;;;;;;6.07;2.10;;;4.10;95.50;;;6.78;84.60;102332.78;4988259;28;97721;-66
2021/03/04 03:40:47;;;;;;;1.77;1.67;;;4.10;95.50;;;6.77;84.71;102327.69;4990251;28;96921;-66
2021/03/04 03:43:18;;;;;;;2.83;1.88;;;4.10;95.50;;;6.78;84.17;102331.97;4989441;28;96884;-67
2021/03/04 03:45:50;;;;;;;4.43;4.03;;;4.10;95.50;;;6.84;84.62;102323.00;4987504;28;97862;-67
2021/03/04 03:48:24;;;;;;;1.75;1.65;;;4.10;95.50;;;6.85;84.94;102316.63;4988870;28;97922;-67
2021/03/04 03:50:56;;;;;;;0.30;0.30;;;4.10;95.50;;;6.81;84.55;102307.50;4982991;28;96919;-67
2021/03/04 03:53:27;;;;;;;1.55;1.45;;;4.10;95.50;;;6.81;84.77;102305.66;4974151;28;96855;-67
2021/03/04 03:55:56;;;;;;;1.85;1.75;;;4.10;95.50;;;6.81;84.07;102310.16;4987620;28;97832;-67
2021/03/04 03:58:27;;;;;;;3.20;1.98;;;4.10;95.50;;;6.86;83.82;102315.59;4990353;28;98442;-67
2021/03/04 04:00:56;;;;;;;4.07;2.33;;;4.10;95.50;;;6.77;84.50;102306.38;4989325;28;96871;-67
2021/03/04 04:03:26;;;;;;;4.20;2.30;;;4.10;95.50;;;6.78;83.93;102311.47;4985173;28;96815;-67
2021/03/04 04:05:54;;;;;;;2.08;1.95;;;4.10;95.50;;;6.78;84.05;102306.16;4968548;28;98212;-67
2021/03/04 04:08:24;;;;;;;4.93;2.42;;;4.10;95.50;;;6.77;84.58;102304.53;4987865;28;97465;-67
2021/03/04 04:10:52;;;;;;;2.75;1.20;;;4.10;95.50;;;6.78;83.96;102311.47;4987884;28;96885;-67
2021/03/04 04:13:21;;;;;;;8.48;1.55;;;4.10;95.50;;;6.83;83.95;102298.25;4985821;28;96899;-67
2021/03/04 04:15:49;;;;;;;3.63;2.90;;;4.10;95.50;;;6.81;83.63;102302.19;4970476;28;98906;-67
2021/03/04 04:18:19;;;;;;;4.13;1.85;;;4.10;95.50;;;6.83;83.79;102284.91;4991600;28;98243;-67
2021/03/04 04:20:51;;;;;;;2.05;1.95;;;4.10;95.50;;;6.80;83.47;102289.91;4990851;28;96750;-67
2021/03/04 04:23:19;;;;;;;3.63;2.20;;;4.10;95.50;;;6.80;83.67;102287.25;4988191;28;97357;-67
2021/03/04 04:25:51;;;;;;;9.70;2.75;;;4.10;95.50;;;6.83;83.38;102270.78;4988989;28;97973;-67
2021/03/04 04:28:21;;;;;;;1.85;1.60;;;4.10;95.50;;;6.73;84.55;102283.94;4986524;28;98033;-66
2021/03/04 04:30:50;;;;;;;6.22;1.83;;;4.10;95.50;;;6.70;84.62;102279.09;5004319;28;97260;-67
2021/03/04 04:33:18;;;;;;;5.78;3.92;;;4.10;95.50;;;6.70;84.20;102276.41;4987161;28;96834;-67
2021/03/04 04:35:48;;;;;;;1.65;1.55;;;4.00;95.50;;;6.68;84.51;102273.97;4990696;28;98212;-67
2021/03/04 04:38:17;;;;;;;4.35;2.28;;;4.00;95.50;;;6.68;84.82;102267.84;4989026;28;97972;-67
2021/03/04 04:40:45;;;;;;;4.78;2.75;;;4.00;95.80;;;6.67;84.48;102260.91;4991223;28;97095;-67
2021/03/04 04:43:14;;;;;;;4.25;2.30;;;4.10;95.50;;;6.70;84.82;102260.44;4992001;28;96806;-67
2021/03/04 04:45:42;;;;;;;1.48;1.38;;;4.00;95.50;;;6.67;84.15;102244.94;4989982;28;97743;-67
2021/03/04 04:48:10;;;;;;;1.85;1.48;;;4.00;95.50;;;6.61;83.84;102241.38;5006190;28;97675;-67
2021/03/04 04:50:38;;;;;;;14.90;1.23;;;4.00;95.50;;;6.68;85.01;102250.00;4972515;28;96997;-67
2021/03/04 04:53:06;;;;;;;2.50;2.30;;;4.00;95.50;;;6.67;83.75;102255.59;4986111;28;97004;-67
2021/03/04 04:55:35;;;;;;;5.38;2.65;;;4.00;95.50;;;6.68;84.58;102260.66;4970608;28;100355;-67
2021/03/04 04:58:04;;;;;;;2.45;2.25;;;4.00;95.50;;;6.72;83.61;102263.66;5001091;28;97522;-67
2021/03/04 05:00:31;;;;;;;2.30;1.48;;;4.00;95.50;;;6.72;83.59;102255.69;4988380;28;96866;-67
2021/03/04 05:02:59;;;;;;;4.82;1.77;;;4.00;95.50;;;6.67;84.24;102248.41;4990234;28;96957;-67
2021/03/04 05:05:32;;;;;;;6.65;1.95;;;4.00;95.50;;;6.65;84.27;102258.47;4990969;28;98045;-67
2021/03/04 05:07:59;;;;;;;2.55;2.28;;;4.00;95.50;;;6.61;83.83;102268.00;4990191;28;98840;-67
2021/03/04 05:10:32;;;;;;;5.72;0.88;;;4.00;95.50;;;6.58;84.37;102272.97;4972090;28;96850;-67
2021/03/04 05:13:00;;;;;;;8.20;1.08;;;4.00;95.50;;;6.54;84.38;102271.84;4989109;28;97035;-67
2021/03/04 05:15:31;;;;;;;3.85;2.50;;;4.00;95.50;;;6.52;84.96;102271.25;4990114;28;97890;-67
2021/03/04 05:17:59;;;;;;;6.85;2.17;;;3.90;95.50;;;6.51;85.33;102275.78;4983852;28;96754;-67
2021/03/04 05:20:32;;;;;;;3.50;2.63;;;3.90;95.50;;;6.57;84.43;102276.69;4987817;28;96987;-67
2021/03/04 05:22:59;;;;;;;1.50;1.00;;;3.90;95.50;;;6.59;84.64;102277.25;4968571;28;96725;-67
2021/03/04 05:25:30;;;;;;;2.92;1.48;;;3.90;95.50;;;6.60;83.91;102265.56;4985998;28;99120;-66
2021/03/04 05:27:58;;;;;;;2.67;1.50;;;3.90;95.50;;;6.56;84.22;102264.41;4999815;28;97860;-67
2021/03/04 05:30:28;;;;;;;6.00;1.55;;;3.90;95.50;;;6.56;84.23;102259.09;4972096;28;96864;-67
2021/03/04 05:32:55;;;;;;;2.10;1.55;;;3.90;95.50;;;6.55;84.38;102252.16;4990335;28;96980;-67
2021/03/04 05:35:24;;;;;;;0.30;0.30;;;3.90;95.50;;;6.52;84.19;102252.63;4986606;28;97714;-66
2021/03/04 05:37:51;;;;;;;4.75;1.92;;;3.90;95.50;;;6.50;84.73;102270.69;4984389;28;97862;-67
2021/03/04 05:40:19;;;;;;;1.88;1.48;;;3.80;95.50;;;6.49;84.58;102279.72;4987275;28;97001;-66
2021/03/04 05:42:47;;;;;;;3.30;2.13;;;3.90;95.50;;;6.47;84.02;102261.34;4988033;28;96991;-67
2021/03/04 05:45:19;;;;;;;1.77;1.42;;;3.80;95.50;;;6.46;84.16;102251.75;4962523;28;97332;-67
2021/03/04 05:47:56;;;;;;;1.98;1.60;;;3.80;95.50;;;6.43;84.39;102244.22;4988525;28;97005;-67
2021/03/04 05:50:28;;;;;;;1.58;1.30;;;3.80;95.50;;;6.47;84.35;102247.22;4986826;28;97013;-66
2021/03/04 05:53:05;;;;;;;4.80;3.20;;;3.80;95.50;;;6.49;84.16;102221.16;4987312;28;96949;-67
2021/03/04 05:55:34;;;;;;;6.07;2.38;;;3.80;95.50;;;6.46;84.54;102227.78;4990193;28;96863;-67
2021/03/04 05:58:06;;;;;;;2.50;2.28;;;3.80;95.50;;;6.51;84.14;102235.03;4990955;28;98036;-66
2021/03/04 06:00:36;;;;;;;4.15;2.47;;;3.80;95.50;;;6.51;84.26;102214.56;4987402;28;96819;-66
2021/03/04 06:03:07;;;;;;;4.18;2.47;;;3.80;95.50;;;6.52;83.99;102218.84;4987599;28;96925;-67
2021/03/04 06:05:36;;;;;;;1.88;1.77;;;3.80;95.50;;;6.50;84.59;102214.78;4987072;28;96962;-67
2021/03/04 06:08:07;;;;;;;3.30;2.97;;;3.80;95.50;;;6.51;84.13;102225.22;4989007;28;99395;-67
2021/03/04 06:10:35;;;;;;;1.48;1.35;;;3.80;95.50;;;6.45;85.03;102212.84;4986947;28;97089;-67
2021/03/04 06:13:05;;;;;;;2.10;1.52;;;3.80;95.50;;;6.50;84.17;102212.13;4990084;28;96935;-67
2021/03/04 06:15:33;;;;;;;1.60;1.33;;;3.80;95.50;;;6.54;84.75;102211.41;4986793;28;97757;-67
2021/03/04 06:18:04;;;;;;;5.90;4.35;;;3.80;95.60;;;6.57;84.72;102210.94;4984102;28;96979;-67
2021/03/04 06:20:39;;;;;;;2.00;1.20;;;3.90;95.60;;;6.64;84.81;102210.81;4987776;28;97449;-67
2021/03/04 06:23:07;;;;;;;1.23;1.23;;;3.90;95.60;;;6.65;84.39;102215.88;4995948;28;96755;-67
2021/03/04 06:25:36;;;;;;;3.42;2.25;;;3.90;95.60;;;6.64;83.74;102208.13;4985189;28;96867;-67
2021/03/04 06:28:07;;;;;;;11.43;2.40;;;3.90;95.60;;;6.65;83.84;102218.53;4988415;28;98131;-67
2021/03/04 06:30:37;;;;;;;0.38;0.38;;;3.90;95.60;;;6.64;83.42;102213.47;4972263;28;96661;-67
2021/03/04 06:33:09;;;;;;;0.85;0.85;;;3.90;95.60;;;6.67;84.70;102212.97;4978286;28;97000;-66
2021/03/04 06:35:40;;;;;;;6.07;3.42;;;3.90;95.60;;;6.65;84.51;102215.06;4986394;28;97043;-66
2021/03/04 06:38:17;;;;;;;8.27;1.65;;;3.90;95.60;;;6.66;84.40;102212.16;4981315;28;98938;-68
2021/03/04 06:40:47;;;;;;;2.72;2.05;;;3.90;95.60;;;6.69;83.54;102221.53;4989114;28;96833;-68
2021/03/04 06:43:18;;;;;;;12.95;4.97;;;3.90;95.60;;;6.67;83.99;102220.97;4960731;28;96889;-68
2021/03/04 06:45:48;;;;;;;1.65;0.77;;;4.00;95.60;;;6.66;84.59;102222.03;4982089;28;96672;-68
2021/03/04 06:48:21;;;;;;;1.67;1.08;;;3.90;95.50;;;6.67;84.21;102226.28;5004720;28;97693;-67
2021/03/04 06:50:58;;;;;;;1.33;1.23;;;3.90;95.50;;;6.74;83.61;102221.63;4988750;28;96866;-68
2021/03/04 06:53:31;;;;;;;0.47;0.47;;;4.00;95.50;;;6.73;84.41;102228.78;4988400;28;96837;-67
2021/03/04 06:56:04;;;;;;;1.40;1.17;;;4.00;95.50;;;6.71;83.82;102230.09;4985608;28;96996;-68
2021/03/04 06:58:35;;;;;;;5.85;2.47;;;4.00;95.50;;;6.69;83.39;102232.19;4984233;28;97938;-68
2021/03/04 07:01:09;;;;;;;1.77;1.70;;;4.00;95.50;;;6.66;84.18;102230.00;4985262;28;97156;-68
2021/03/04 07:03:40;;;;;;;1.23;1.08;;;4.00;95.50;;;6.70;84.28;102225.81;4989455;28;96929;-67
2021/03/04 07:06:36;;;;;;;;;;;4.00;95.50;;;6.75;84.39;102231.22;4987864;28;97774;-67
2021/03/04 07:09:05;;;;;;;0.60;0.60;;;4.00;95.50;;;6.75;84.44;102236.56;4986942;28;96876;-67
2021/03/04 07:11:36;;;;;;;0.98;0.82;;;4.00;95.50;;;6.79;83.64;102235.03;4987655;28;97288;-67
2021/03/04 07:14:09;;;;;;;0.20;0.20;;;4.00;95.50;;;6.80;84.19;102244.63;4966893;28;97016;-67
2021/03/04 07:16:43;;;;;;;6.47;3.33;;;4.00;95.50;;;6.75;84.55;102250.66;5000928;28;98408;-66
2021/03/04 07:19:14;;;;;;;0.80;0.80;;;4.10;95.50;;;6.78;83.97;102260.88;5000015;28;97258;-67
2021/03/04 07:21:46;;;;;;;0.52;0.52;;;4.10;95.50;;;6.78;83.71;102255.53;4983760;28;97502;-66
2021/03/04 07:24:15;;;;;;;0.87;0.87;;;4.10;95.40;;;6.82;83.74;102245.19;4986988;28;97373;-66
2021/03/04 07:27:19;;;;;;;2.90;2.53;;;4.10;95.40;;;6.86;84.17;102249.00;4989026;28;97784;-67
2021/03/04 07:29:57;;;;;;;0.25;0.25;;;4.10;95.40;;;6.88;84.19;102249.56;4984002;28;96864;-68
2021/03/04 07:32:25;;;;;;;3.15;1.90;;;4.10;95.40;;;6.87;84.09;102242.63;4986407;28;97358;-68
2021/03/04 07:34:54;;;;;;;0.90;0.90;;;4.10;95.40;;;6.85;84.26;102242.03;4997853;28;97080;-67
2021/03/04 07:37:23;;;;;;;0.45;0.35;;;4.10;95.40;;;6.86;84.35;102244.47;4986099;28;98071;-68
2021/03/04 07:39:59;;;;;;;0.85;0.85;;;4.20;95.40;;;6.88;84.23;102246.88;4986645;28;96836;-67
2021/03/04 07:42:32;;;;;;;4.28;2.30;;;4.20;95.40;;;6.93;84.33;102255.78;4992773;28;96857;-68
2021/03/04 07:45:14;;;;;;;1.60;1.50;;;4.20;95.40;;;6.99;84.02;102265.47;4990727;28;97119;-67
2021/03/04 07:47:43;;;;;;;0.47;0.47;;;4.20;95.40;;;6.99;83.62;102259.34;4967197;28;100126;-67
2021/03/04 07:50:17;;;;;;;2.08;0.80;;;4.20;95.40;;;7.00;83.32;102258.31;4983775;28;97758;-67
2021/03/04 07:52:47;;;;;;;1.33;1.25;;;4.20;95.40;;;7.00;83.22;102244.97;4988959;28;97090;-67
2021/03/04 07:55:17;;;;;;;1.80;1.23;;;4.20;95.40;;;7.05;84.02;102261.06;5001662;28;96944;-67
2021/03/04 07:57:46;;;;;;;1.55;0.63;;;4.30;95.40;;;7.06;84.58;102263.50;5002017;28;97687;-68
2021/03/04 08:00:16;;;;;;;0.50;0.50;;;4.30;95.40;;;7.08;83.61;102271.22;4990323;28;97783;-68
2021/03/04 08:02:45;;;;;;;6.63;1.92;;;4.30;95.40;;;7.07;83.55;102257.09;4987371;28;96893;-67
2021/03/04 08:05:16;;;;;;;0.73;0.73;;;4.30;95.40;;;7.09;83.67;102252.34;4989164;28;97323;-67
2021/03/04 08:07:48;;;;;;;4.03;1.27;;;4.30;95.40;;;7.12;84.11;102243.03;4978743;28;98871;-67
2021/03/04 08:10:19;;;;;;;4.35;2.33;;;4.30;95.40;;;7.14;84.33;102247.09;4970290;28;98067;-68
2021/03/04 08:12:51;;;;;;;0.28;0.28;;;4.40;95.40;;;7.16;83.95;102238.84;5003524;28;97359;-67
2021/03/04 08:15:22;;;;;;;4.43;1.55;;;4.40;95.40;;;7.18;83.37;102242.06;4980039;28;97076;-67
2021/03/04 08:17:50;;;;;;;1.20;0.63;;;4.40;95.30;;;7.21;83.66;102236.28;4981271;28;97987;-67
2021/03/04 08:20:19;;;;;;;1.98;1.88;;;4.40;95.30;;;7.25;83.99;102221.41;4990070;28;98413;-67
2021/03/04 08:22:50;;;;;;;1.92;1.83;;;4.50;95.40;;;7.29;83.47;102228.66;4991652;28;97195;-67
2021/03/04 08:25:23;;;;;;;0.65;0.50;;;4.50;95.40;;;7.30;83.93;102224.94;4984239;28;97014;-67
2021/03/04 08:27:54;;;;;;;1.38;1.30;;;4.50;95.30;;;7.33;84.20;102218.31;4984152;28;97006;-67
2021/03/04 08:30:29;;;;;;;2.75;1.50;;;4.50;95.30;;;7.39;83.38;102225.34;5000604;28;98009;-67
2021/03/04 08:33:04;;;;;;;1.85;0.93;;;4.50;95.30;;;7.42;83.37;102219.53;4983803;28;99938;-67
2021/03/04 08:35:37;;;;;;;4.47;1.60;;;4.60;95.40;;;7.39;83.91;102217.34;4987799;28;96951;-67
2021/03/04 08:38:09;;;;;;;1.30;1.13;;;4.60;95.30;;;7.45;83.85;102222.50;4987409;28;98160;-67
2021/03/04 08:40:43;;;;;;;0.38;0.38;;;4.60;95.30;;;7.46;83.31;102209.97;4991063;28;97769;-67
2021/03/04 08:43:15;;;;;;;1.88;1.63;;;4.60;95.30;;;7.48;83.07;102205.19;4989669;28;96900;-67
2021/03/04 08:45:46;;;;;;;0.68;0.68;;;4.60;95.30;;;7.47;83.34;102206.25;4989011;28;97151;-67
2021/03/04 08:48:15;;;;;;;0.70;0.70;;;4.60;95.30;;;7.46;84.33;102202.78;4986221;28;98301;-67
2021/03/04 08:50:46;;;;;;;0.88;0.47;;;4.60;95.30;;;7.47;83.41;102207.06;4980480;28;97712;-67
2021/03/04 08:53:18;;;;;;;1.67;1.38;;;4.70;95.40;;;7.45;83.70;102206.53;4983438;28;96835;-67
2021/03/04 08:55:48;;;;;;;0.50;0.50;;;4.70;95.30;;;7.49;84.07;102206.81;5003668;28;96777;-67
2021/03/04 08:58:32;;;;;;;0.65;0.57;;;4.70;95.40;;;7.53;83.34;102203.41;4984644;28;97929;-67
2021/03/04 09:01:06;;;;;;;0.70;0.70;;;4.70;95.40;;;7.51;84.24;102196.75;4984519;28;96787;-67
2021/03/04 09:03:37;;;;;;;2.83;1.77;;;4.70;95.40;;;7.55;84.17;102193.31;4988419;28;96845;-67
2021/03/04 09:06:08;;;;;;;2.90;1.75;;;4.80;95.40;;;7.57;83.75;102201.88;4984635;28;96890;-67
2021/03/04 09:08:40;;;;;;;4.15;1.40;;;4.80;95.40;;;7.63;83.27;102210.75;5003064;28;98817;-67
2021/03/04 09:11:22;;;;;;;6.97;3.10;;;4.70;95.30;;;7.58;83.90;102203.50;4998092;28;97078;-67
2021/03/04 09:13:50;;;;;;;12.07;1.75;;;4.80;95.40;;;7.57;84.11;102199.22;5001257;28;97054;-67
2021/03/04 09:16:18;;;;;;;0.50;0.50;;;4.80;95.40;;;7.58;83.32;102192.81;4978637;28;97686;-66
2021/03/04 09:18:47;;;;;;;2.35;0.93;;;4.80;95.30;;;7.54;83.14;102204.25;4981859;28;97329;-66
2021/03/04 09:21:18;;;;;;;1.02;0.80;;;4.80;95.30;;;7.51;83.37;102215.41;4979722;28;97208;-67
2021/03/04 09:23:47;;;;;;;1.63;1.35;;;4.80;95.30;;;7.52;83.38;102222.34;4998753;28;97306;-66
2021/03/04 09:26:17;;;;;;;10.63;1.67;;;4.80;95.30;;;7.53;83.53;102226.63;4983640;28;97390;-66
2021/03/04 09:28:46;;;;;;;1.45;1.17;;;4.80;95.30;;;7.59;83.74;102221.09;4968333;28;98908;-67
2021/03/04 09:31:16;;;;;;;0.68;0.68;;;4.80;95.30;;;7.66;83.69;102219.09;4970115;28;96900;-66
2021/03/04 09:33:55;;;;;;;1.20;0.63;;;4.80;95.20;;;7.69;83.12;102221.25;4987240;28;97375;-66
2021/03/04 09:36:24;;;;;;;5.20;1.75;;;4.80;95.20;;;7.71;83.43;102211.94;4984969;28;97046;-66
2021/03/04 09:38:56;;;;;;;2.75;1.80;;;4.80;95.20;;;7.70;83.12;102206.88;4997897;28;98311;-66
2021/03/04 09:41:26;;;;;;;0.90;0.90;;;4.90;95.20;;;7.67;83.50;102207.38;4995078;28;96948;-66
2021/03/04 09:44:05;;;;;;;4.20;2.60;;;4.90;95.20;;;7.66;83.87;102210.25;4984828;28;96780;-66
2021/03/04 09:46:38;;;;;;;3.45;0.95;;;4.90;95.20;;;7.63;83.89;102213.44;4965014;28;97304;-66
2021/03/04 09:49:16;;;;;;;0.43;0.43;;;4.90;95.20;;;7.64;83.25;102209.72;4987061;28;98181;-66
2021/03/04 09:51:46;;;;;;;2.35;2.10;;;4.90;95.20;;;7.60;83.62;102212.06;4986435;28;98702;-66
2021/03/04 09:54:28;;;;;;;3.15;1.48;;;4.90;95.20;;;7.64;83.57;102210.50;4984444;28;97198;-67
2021/03/04 09:57:10;;;;;;;0.73;0.73;;;4.90;95.10;;;7.60;83.61;102214.72;4968903;28;97352;-66
2021/03/04 09:59:47;;;;;;;0.30;0.30;;;4.80;95.10;;;7.59;83.81;102214.97;4987210;28;96824;-66
2021/03/04 10:02:16;;;;;;;0.32;0.32;;;4.80;95.00;;;7.57;83.79;102209.88;4996218;28;97698;-66
2021/03/04 10:04:56;;;;;;;0.30;0.30;;;4.80;95.00;;;7.58;83.42;102198.16;4985636;28;97487;-67
2021/03/04 10:07:26;;;;;;;0.50;0.30;;;4.80;95.10;;;7.62;83.99;102201.16;4987454;28;96868;-67
2021/03/04 10:09:57;;;;;;;0.40;0.40;;;4.80;95.10;;;7.66;83.87;102202.25;4987967;28;97920;-66
2021/03/04 10:12:25;;;;;;;0.90;0.85;;;4.90;95.10;;;7.70;83.01;102205.00;4988594;28;97083;-66
2021/03/04 10:14:57;;;;;;;0.30;0.30;;;4.90;95.10;;;7.73;83.30;102204.50;4986556;28;97128;-66
2021/03/04 10:17:25;;;;;;;0.35;0.35;;;4.90;95.10;;;7.83;82.79;102201.97;4971384;28;96966;-67
2021/03/04 10:19:53;;;;;;;0.60;0.60;;;4.90;95.00;;;7.95;82.64;102200.00;4986096;28;97317;-67
2021/03/04 10:22:21;;;;;;;0.55;0.40;;;5.00;95.00;;;8.02;82.66;102192.59;4988697;28;97294;-67
2021/03/04 10:24:49;;;;;;;3.10;1.33;;;5.10;95.00;;;8.11;83.06;102196.47;4981051;28;97971;-67
2021/03/04 10:27:21;;;;;;;0.65;0.65;;;5.10;94.90;;;8.19;83.02;102203.22;4981802;28;96940;-67
2021/03/04 10:29:49;;;;;;;0.57;0.57;;;5.20;94.90;;;8.33;82.12;102204.47;4983444;28;97073;-67
2021/03/04 10:32:17;;;;;;;0.40;0.40;;;5.30;94.90;;;8.48;81.72;102194.75;4984207;28;97277;-67
2021/03/04 10:34:45;;;;;;;0.30;0.30;;;5.40;94.90;;;8.68;81.68;102196.81;4985418;28;103765;-68
2021/03/04 10:37:12;;;;;;;0.10;0.10;;;5.50;94.80;;;8.85;80.98;102192.13;4988585;28;96685;-66
2021/03/04 10:39:40;;;;;;;0.43;0.43;;;5.60;94.70;;;9.00;81.19;102189.59;4968773;28;97855;-68
2021/03/04 10:42:09;;;;;;;0.10;0.10;;;5.70;94.60;;;9.19;80.62;102191.59;4982766;28;97241;-66